createdAt,value
2022-11-26T00:02:29.327Z,34.50
2022-11-26T00:05:00.090Z,35.90
2022-11-26T00:07:31.161Z,34.40
2022-11-26T00:10:00.697Z,33.70
2022-11-26T00:12:33.740Z,27.30
2022-11-26T00:15:29.239Z,32.10
2022-11-26T00:17:58.483Z,29.90
2022-11-26T00:20:31.654Z,26.60
2022-11-26T00:23:02.879Z,32.60
2022-11-26T00:25:43.660Z,26.60
2022-11-26T00:28:26.306Z,30.00
2022-11-26T00:31:15.191Z,29.70
2022-11-26T00:33:43.626Z,33.60
2022-11-26T00:36:18.880Z,31.00
2022-11-26T00:38:51.895Z,30.50
2022-11-26T00:41:26.780Z,31.30
2022-11-26T00:43:55.164Z,32.90
2022-11-26T00:46:23.529Z,28.40
2022-11-26T00:48:52.467Z,29.50
2022-11-26T00:51:25.720Z,30.70
2022-11-26T00:53:56.737Z,28.40
2022-11-26T00:56:25.969Z,28.80
2022-11-26T00:58:54.442Z,28.30
2022-11-26T01:01:26.171Z,26.80
2022-11-26T01:03:55.267Z,26.60
2022-11-26T01:06:26.853Z,26.70
2022-11-26T01:08:55.303Z,28.20
2022-11-26T01:11:24.833Z,29.10
2022-11-26T01:13:54.948Z,28.10
2022-11-26T01:16:31.456Z,28.70
2022-11-26T01:19:01.096Z,26.70
2022-11-26T01:21:31.799Z,26.30
2022-11-26T01:24:03.015Z,29.00
2022-11-26T01:26:38.923Z,28.20
2022-11-26T01:29:07.514Z,26.20
2022-11-26T01:31:36.053Z,29.00
2022-11-26T01:34:04.521Z,26.70
2022-11-26T01:36:38.888Z,28.90
2022-11-26T01:39:15.103Z,26.70
2022-11-26T01:42:10.471Z,31.30
2022-11-26T01:44:39.288Z,31.60
2022-11-26T01:47:28.183Z,29.60
2022-11-26T01:50:34.769Z,31.50
2022-11-26T01:53:10.649Z,28.30
2022-11-26T01:55:51.877Z,29.80
2022-11-26T01:58:26.570Z,29.10
2022-11-26T02:00:55.582Z,33.10
2022-11-26T02:03:25.437Z,31.10
2022-11-26T02:06:03.879Z,31.60
2022-11-26T02:08:34.881Z,29.50
2022-11-26T02:11:16.525Z,29.40
2022-11-26T02:13:47.966Z,30.80
2022-11-26T02:16:33.558Z,29.80
2022-11-26T02:19:17.264Z,30.10
2022-11-26T02:21:57.240Z,29.20
2022-11-26T02:25:00.397Z,30.80
2022-11-26T02:27:46.680Z,27.60
2022-11-26T02:30:17.255Z,28.90
2022-11-26T02:32:51.538Z,28.30
2022-11-26T02:35:36.254Z,28.20
2022-11-26T02:38:15.854Z,26.50
2022-11-26T02:40:44.726Z,29.70
2022-11-26T02:43:15.597Z,26.00
2022-11-26T02:45:49.015Z,26.50
2022-11-26T02:48:24.389Z,29.30
2022-11-26T02:51:01.873Z,28.30
2022-11-26T02:53:32.827Z,28.10
2022-11-26T02:56:09.455Z,28.20
2022-11-26T02:58:38.534Z,26.30
2022-11-26T03:01:13.098Z,27.70
2022-11-26T03:03:47.405Z,31.60
2022-11-26T03:06:18.662Z,26.70
2022-11-26T03:08:47.283Z,24.50
2022-11-26T03:11:15.718Z,27.30
2022-11-26T03:13:44.078Z,28.70
2022-11-26T03:16:12.580Z,27.80
2022-11-26T03:18:41.584Z,31.30
2022-11-26T03:21:10.052Z,28.40
2022-11-26T03:23:38.481Z,28.10
2022-11-26T03:26:07.076Z,27.40
2022-11-26T03:28:35.716Z,30.40
2022-11-26T03:31:04.207Z,32.30
2022-11-26T03:33:32.517Z,25.80
2022-11-26T03:36:00.911Z,27.00
2022-11-26T03:38:29.245Z,27.10
2022-11-26T03:41:03.343Z,26.90
2022-11-26T03:43:31.785Z,27.50
2022-11-26T03:46:00.316Z,27.00
2022-11-26T03:48:28.861Z,28.10
2022-11-26T03:50:57.280Z,25.40
2022-11-26T03:53:25.698Z,28.30
2022-11-26T03:55:53.980Z,28.40
2022-11-26T03:58:22.427Z,27.60
2022-11-26T04:00:50.804Z,26.80
2022-11-26T04:03:19.355Z,28.20
2022-11-26T04:05:47.717Z,28.60
2022-11-26T04:08:16.146Z,28.20
2022-11-26T04:10:44.509Z,26.80
2022-11-26T04:13:12.952Z,28.40
2022-11-26T04:15:42.145Z,27.60
2022-11-26T04:18:10.507Z,23.80
2022-11-26T04:20:37.639Z,30.00
2022-11-26T04:23:04.697Z,26.60
2022-11-26T04:25:33.083Z,27.30
2022-11-26T04:28:00.232Z,24.20
2022-11-26T04:30:30.045Z,27.00
2022-11-26T04:32:58.559Z,27.70
2022-11-26T04:35:26.924Z,27.80
2022-11-26T04:37:55.287Z,23.80
2022-11-26T04:40:23.713Z,26.60
2022-11-26T04:42:52.160Z,28.50
2022-11-26T04:45:20.535Z,28.30
2022-11-26T04:47:48.967Z,27.80
2022-11-26T04:50:17.424Z,26.10
2022-11-26T04:52:48.671Z,27.60
2022-11-26T04:55:18.516Z,27.20
2022-11-26T04:57:49.820Z,28.00
2022-11-26T05:00:19.405Z,25.40
2022-11-26T05:02:47.918Z,26.10
2022-11-26T05:05:16.759Z,26.10
2022-11-26T05:07:45.184Z,27.80
2022-11-26T05:10:13.992Z,27.30
2022-11-26T05:12:42.583Z,25.80
2022-11-26T05:15:11.331Z,27.00
2022-11-26T05:17:39.729Z,27.70
2022-11-26T05:20:08.826Z,27.10
2022-11-26T05:22:37.322Z,28.70
2022-11-26T05:25:06.024Z,26.90
2022-11-26T05:27:34.601Z,25.20
2022-11-26T05:30:04.150Z,26.70
2022-11-26T05:32:32.610Z,27.50
2022-11-26T05:35:01.065Z,27.40
2022-11-26T05:37:29.425Z,26.90
2022-11-26T05:39:57.739Z,26.10
2022-11-26T05:42:26.201Z,26.00
2022-11-26T05:44:54.556Z,25.20
2022-11-26T05:47:23.233Z,26.10
2022-11-26T05:49:51.652Z,26.20
2022-11-26T05:52:20.071Z,27.20
2022-11-26T05:54:49.262Z,28.30
2022-11-26T05:57:18.580Z,27.70
2022-11-26T05:59:49.480Z,25.40
2022-11-26T06:02:18.098Z,26.20
2022-11-26T06:04:46.701Z,24.00
2022-11-26T06:07:15.154Z,25.10
2022-11-26T06:09:43.560Z,28.10
2022-11-26T06:12:12.015Z,25.90
2022-11-26T06:14:43.211Z,27.40
2022-11-26T06:17:12.664Z,26.30
2022-11-26T06:19:41.058Z,28.70
2022-11-26T06:22:09.544Z,27.00
2022-11-26T06:24:38.324Z,29.30
2022-11-26T06:27:06.916Z,27.90
2022-11-26T06:29:35.347Z,26.10
2022-11-26T06:32:03.956Z,29.50
2022-11-26T06:34:32.406Z,27.80
2022-11-26T06:37:00.775Z,28.80
2022-11-26T06:39:29.137Z,30.50
2022-11-26T06:41:57.546Z,31.30
2022-11-26T06:44:25.940Z,29.70
2022-11-26T06:46:54.534Z,33.40
2022-11-26T06:49:22.888Z,32.20
2022-11-26T06:51:51.317Z,35.80
2022-11-26T06:54:19.886Z,32.70
2022-11-26T06:56:48.261Z,30.50
2022-11-26T06:59:16.953Z,33.70
2022-11-26T07:01:45.384Z,29.10
2022-11-26T07:04:14.430Z,30.00
2022-11-26T07:06:44.972Z,31.80
2022-11-26T07:09:14.538Z,30.50
2022-11-26T07:11:43.372Z,29.20
2022-11-26T07:14:11.844Z,31.00
2022-11-26T07:16:40.290Z,32.70
2022-11-26T07:19:13.547Z,28.70
2022-11-26T07:21:42.756Z,31.20
2022-11-26T07:24:11.221Z,34.10
2022-11-26T07:26:39.576Z,31.80
2022-11-26T07:29:08.409Z,29.20
2022-11-26T07:31:37.038Z,31.10
2022-11-26T07:34:05.473Z,31.70
2022-11-26T07:36:33.856Z,29.60
2022-11-26T07:39:03.480Z,27.90
2022-11-26T07:41:31.831Z,28.10
2022-11-26T07:44:00.186Z,27.90
2022-11-26T07:46:28.844Z,28.60
2022-11-26T07:48:57.491Z,26.10
2022-11-26T07:51:30.360Z,24.10
2022-11-26T07:54:03.694Z,26.40
2022-11-26T07:56:32.568Z,28.60
2022-11-26T07:59:01.845Z,24.60
2022-11-26T08:01:31.487Z,27.00
2022-11-26T08:04:01.272Z,24.40
2022-11-26T08:06:30.711Z,27.40
2022-11-26T08:09:00.884Z,26.90
2022-11-26T08:11:32.823Z,26.20
2022-11-26T08:14:07.983Z,24.90
2022-11-26T08:16:36.521Z,29.50
2022-11-26T08:19:08.775Z,26.80
2022-11-26T08:21:38.639Z,27.50
2022-11-26T08:24:08.701Z,27.70
2022-11-26T08:26:43.555Z,25.50
2022-11-26T08:29:14.269Z,28.30
2022-11-26T08:31:46.308Z,27.30
2022-11-26T08:34:16.725Z,26.20
2022-11-26T08:36:46.262Z,26.80
2022-11-26T08:39:17.618Z,27.20
2022-11-26T08:41:51.942Z,22.10
2022-11-26T08:44:22.043Z,23.80
2022-11-26T08:46:50.852Z,26.60
2022-11-26T08:49:19.335Z,20.30
2022-11-26T08:51:47.720Z,23.30
2022-11-26T08:54:16.131Z,22.30
2022-11-26T08:56:44.489Z,22.50
2022-11-26T08:59:12.852Z,23.00
2022-11-26T09:01:41.229Z,33.10
2022-11-26T09:04:09.640Z,23.20
2022-11-26T09:06:38.437Z,23.80
2022-11-26T09:09:13.255Z,24.30
2022-11-26T09:11:56.563Z,19.00
2022-11-26T09:14:29.966Z,21.00
2022-11-26T09:16:58.814Z,21.00
2022-11-26T09:19:28.740Z,21.90
2022-11-26T09:21:58.501Z,17.70
2022-11-26T09:24:27.137Z,19.00
2022-11-26T09:26:55.590Z,18.40
2022-11-26T09:29:24.846Z,15.60
2022-11-26T09:32:23.621Z,17.70
2022-11-26T09:34:41.751Z,20.70
2022-11-26T09:37:10.425Z,17.60
2022-11-26T09:39:38.855Z,16.50
2022-11-26T09:42:13.122Z,16.70
2022-11-26T09:45:08.875Z,17.40
2022-11-26T09:47:41.325Z,21.90
2022-11-26T09:50:32.514Z,22.20
2022-11-26T09:53:09.484Z,22.10
2022-11-26T09:55:42.061Z,19.90
2022-11-26T09:58:27.076Z,21.10
2022-11-26T10:00:59.808Z,20.00
2022-11-26T10:03:34.770Z,21.10
2022-11-26T10:06:08.152Z,20.00
2022-11-26T10:08:48.858Z,19.80
2022-11-26T10:11:33.534Z,21.60
2022-11-26T10:14:47.054Z,20.30
2022-11-26T10:17:17.924Z,19.40
2022-11-26T10:20:08.993Z,17.00
2022-11-26T10:23:12.536Z,20.90
2022-11-26T10:25:51.491Z,16.80
2022-11-26T10:28:28.914Z,18.00
2022-11-26T10:31:07.070Z,19.10
2022-11-26T10:33:44.116Z,20.10
2022-11-26T10:36:23.419Z,24.40
2022-11-26T10:38:53.393Z,18.90
2022-11-26T10:41:23.849Z,22.00
2022-11-26T10:43:52.403Z,18.10
2022-11-26T10:46:38.941Z,22.20
2022-11-26T10:49:27.920Z,22.10
2022-11-26T10:52:03.572Z,21.70
2022-11-26T10:54:35.033Z,23.00
2022-11-26T10:57:24.198Z,21.70
2022-11-26T10:59:54.837Z,19.60
2022-11-26T11:02:30.199Z,20.10
2022-11-26T11:05:04.613Z,20.70
2022-11-26T11:10:08.650Z,20.70
2022-11-26T11:12:41.871Z,20.80
2022-11-26T11:15:28.911Z,19.50
2022-11-26T11:17:59.749Z,19.00
2022-11-26T11:20:36.673Z,18.80
2022-11-26T11:23:07.328Z,20.10
2022-11-26T11:25:38.859Z,18.00
2022-11-26T11:28:12.973Z,20.10
2022-11-26T11:30:42.544Z,17.90
2022-11-26T11:33:18.834Z,19.10
2022-11-26T11:36:29.374Z,23.00
2022-11-26T11:38:59.991Z,20.60
2022-11-26T11:41:29.211Z,18.40
2022-11-26T11:44:02.102Z,19.30
2022-11-26T11:46:59.472Z,19.10
2022-11-26T11:50:03.799Z,20.80
2022-11-26T11:52:44.820Z,19.10
2022-11-26T11:55:31.464Z,19.70
2022-11-26T11:58:33.747Z,19.80
2022-11-26T12:01:11.263Z,19.00
2022-11-26T12:04:00.916Z,20.80
2022-11-26T12:07:01.516Z,22.00
2022-11-26T12:09:32.510Z,19.70
2022-11-26T12:12:27.441Z,19.60
2022-11-26T12:15:00.890Z,18.40
2022-11-26T12:17:54.173Z,21.10
2022-11-26T12:20:22.677Z,21.40
2022-11-26T12:23:22.845Z,24.40
2022-11-26T12:26:00.843Z,21.60
2022-11-26T12:28:34.444Z,22.40
2022-11-26T12:31:47.605Z,22.90
2022-11-26T12:34:41.550Z,23.30
2022-11-26T12:37:32.100Z,23.80
2022-11-26T12:40:15.565Z,22.40
2022-11-26T12:42:48.319Z,23.70
2022-11-26T12:45:59.198Z,22.00
2022-11-26T12:48:50.345Z,23.20
2022-11-26T12:51:58.543Z,23.50
2022-11-26T12:54:37.324Z,26.40
2022-11-26T12:57:19.459Z,25.40
2022-11-26T12:59:58.338Z,25.80
2022-11-26T13:02:33.362Z,26.30
2022-11-26T13:05:02.360Z,29.40
2022-11-26T13:07:42.893Z,29.50
2022-11-26T13:10:45.423Z,32.30
2022-11-26T13:13:22.913Z,31.70
2022-11-26T13:16:14.475Z,29.10
2022-11-26T13:18:48.379Z,29.40
2022-11-26T13:21:24.344Z,26.80
2022-11-26T13:23:53.041Z,30.00
2022-11-26T13:26:24.074Z,30.20
2022-11-26T13:29:26.481Z,26.90
2022-11-26T13:32:43.076Z,29.40
2022-11-26T13:35:20.346Z,29.30
2022-11-26T13:38:20.743Z,26.80
2022-11-26T13:41:23.501Z,28.70
2022-11-26T13:43:54.621Z,29.20
2022-11-26T13:46:34.162Z,28.00
2022-11-26T13:49:17.853Z,30.60
2022-11-26T13:52:09.370Z,28.50
2022-11-26T13:54:44.027Z,29.00
2022-11-26T13:57:17.485Z,26.90
2022-11-26T13:59:52.093Z,28.60
2022-11-26T14:02:37.170Z,29.00
2022-11-26T14:05:13.153Z,34.40
2022-11-26T14:07:43.301Z,30.70
2022-11-26T14:10:42.715Z,33.20
2022-11-26T14:13:12.444Z,34.20
2022-11-26T14:15:43.775Z,30.40
2022-11-26T14:18:13.116Z,28.80
2022-11-26T14:21:00.240Z,30.80
2022-11-26T14:23:52.531Z,30.90
2022-11-26T14:26:37.619Z,33.30
2022-11-26T14:29:09.338Z,34.10
2022-11-26T14:31:51.676Z,32.90
2022-11-26T14:34:27.635Z,31.60
2022-11-26T14:37:01.646Z,29.20
2022-11-26T14:39:31.923Z,28.80
2022-11-26T14:42:06.045Z,29.50
2022-11-26T14:44:35.040Z,28.90
2022-11-26T14:47:17.146Z,30.80
2022-11-26T14:49:54.503Z,29.60
2022-11-26T14:52:44.142Z,28.90
2022-11-26T14:55:28.254Z,28.30
2022-11-26T14:58:09.000Z,28.10
2022-11-26T15:00:38.133Z,32.80
2022-11-26T15:03:24.583Z,116.50
2022-11-26T15:05:53.030Z,59.60
2022-11-26T15:08:25.795Z,50.90
2022-11-26T15:11:08.257Z,45.80
2022-11-26T15:13:43.470Z,46.40
2022-11-26T15:16:32.828Z,66.60
2022-11-26T15:19:03.530Z,41.30
2022-11-26T15:21:33.414Z,48.20
2022-11-26T15:24:07.658Z,45.10
2022-11-26T15:26:37.220Z,43.50
2022-11-26T15:29:33.216Z,46.00
2022-11-26T15:32:02.165Z,42.40
2022-11-26T15:34:32.733Z,54.20
2022-11-26T15:37:01.240Z,59.60
2022-11-26T15:39:31.845Z,140.90
2022-11-26T15:42:05.010Z,103.20
2022-11-26T15:44:41.955Z,73.50
2022-11-26T15:47:19.312Z,66.70
2022-11-26T15:49:53.185Z,53.90
2022-11-26T15:52:26.467Z,45.60
2022-11-26T15:55:12.339Z,38.70
2022-11-26T15:57:42.435Z,35.90
2022-11-26T16:00:25.380Z,32.20
2022-11-26T16:02:54.092Z,29.90
2022-11-26T16:05:30.000Z,27.30
2022-11-26T16:08:05.115Z,25.20
2022-11-26T16:10:39.854Z,31.70
2022-11-26T16:13:19.984Z,34.10
2022-11-26T16:16:12.975Z,30.50
2022-11-26T16:18:44.605Z,28.70
2022-11-26T16:21:22.821Z,26.20
2022-11-26T16:23:54.608Z,28.50
2022-11-26T16:26:23.541Z,28.40
2022-11-26T16:28:51.931Z,28.90
2022-11-26T16:31:22.417Z,29.20
2022-11-26T16:33:50.806Z,28.10
2022-11-26T16:36:20.684Z,28.10
2022-11-26T16:38:49.770Z,27.10
2022-11-26T16:41:21.164Z,28.90
2022-11-26T16:43:50.943Z,30.60
2022-11-26T16:46:24.449Z,29.90
2022-11-26T16:48:53.800Z,31.50
2022-11-26T16:51:24.228Z,28.90
2022-11-26T16:53:52.808Z,31.60
2022-11-26T16:56:38.765Z,32.60
2022-11-26T16:59:25.820Z,29.80
2022-11-26T17:01:55.217Z,36.60
2022-11-26T17:04:24.137Z,34.10
2022-11-26T17:06:52.598Z,34.80
2022-11-26T17:09:21.299Z,32.70
2022-11-26T17:11:50.390Z,39.40
2022-11-26T17:14:19.305Z,38.60
2022-11-26T17:16:47.949Z,39.10
2022-11-26T17:19:17.289Z,38.00
2022-11-26T17:21:45.844Z,33.60
2022-11-26T17:24:17.767Z,32.50
2022-11-26T17:26:53.024Z,35.70
2022-11-26T17:29:21.434Z,33.80
2022-11-26T17:31:50.568Z,79.10
2022-11-26T17:34:19.713Z,45.00
2022-11-26T17:36:49.912Z,46.70
2022-11-26T17:39:19.948Z,38.50
2022-11-26T17:41:48.854Z,44.20
2022-11-26T17:44:17.393Z,41.60
2022-11-26T17:47:15.387Z,48.00
2022-11-26T17:49:36.994Z,47.20
2022-11-26T17:52:06.438Z,43.10
2022-11-26T17:54:36.034Z,45.50
2022-11-26T17:57:04.940Z,45.20
2022-11-26T17:59:35.173Z,42.40
2022-11-26T18:02:03.877Z,45.50
2022-11-26T18:04:34.096Z,41.90
2022-11-26T18:07:13.464Z,41.40
2022-11-26T18:09:42.828Z,43.10
2022-11-26T18:12:25.448Z,36.00
2022-11-26T18:14:58.647Z,42.40
2022-11-26T18:17:28.410Z,39.30
2022-11-26T18:19:57.908Z,40.60
2022-11-26T18:22:28.895Z,37.40
2022-11-26T18:24:58.569Z,34.00
2022-11-26T18:27:31.310Z,33.70
2022-11-26T18:29:59.745Z,35.60
2022-11-26T18:32:29.010Z,37.50
2022-11-26T18:34:57.678Z,39.60
2022-11-26T18:37:27.246Z,38.90
2022-11-26T18:39:56.033Z,37.10
2022-11-26T18:42:36.955Z,44.80
2022-11-26T18:45:11.088Z,40.60
2022-11-26T18:47:43.481Z,43.30
2022-11-26T18:50:14.571Z,45.70
2022-11-26T18:52:43.676Z,47.70
2022-11-26T18:55:15.212Z,52.60
2022-11-26T18:57:44.849Z,51.60
2022-11-26T19:00:15.510Z,47.50
2022-11-26T19:02:45.126Z,47.00
2022-11-26T19:05:23.025Z,47.60
2022-11-26T19:07:53.968Z,46.30
2022-11-26T19:10:23.609Z,47.50
2022-11-26T19:12:53.083Z,49.50
2022-11-26T19:15:22.403Z,50.00
2022-11-26T19:17:52.661Z,49.60
2022-11-26T19:20:22.411Z,47.20
2022-11-26T19:22:57.899Z,42.10
2022-11-26T19:25:28.186Z,45.90
2022-11-26T19:28:03.446Z,46.60
2022-11-26T19:30:34.519Z,42.10
2022-11-26T19:33:04.983Z,44.60
2022-11-26T19:35:34.769Z,45.00
2022-11-26T19:38:04.561Z,47.70
2022-11-26T19:40:33.916Z,45.10
2022-11-26T19:43:06.114Z,41.40
2022-11-26T19:45:36.565Z,40.80
2022-11-26T19:48:06.631Z,40.20
2022-11-26T19:50:37.925Z,37.80
2022-11-26T19:53:08.214Z,38.70
2022-11-26T19:55:38.163Z,40.40
2022-11-26T19:58:08.499Z,42.90
2022-11-26T20:00:38.001Z,42.00
2022-11-26T20:03:08.104Z,37.90
2022-11-26T20:05:38.174Z,38.10
2022-11-26T20:08:09.670Z,42.00
2022-11-26T20:10:39.735Z,48.10
2022-11-26T20:13:12.985Z,51.20
2022-11-26T20:15:48.202Z,37.60
2022-11-26T20:18:17.929Z,59.20
2022-11-26T20:20:59.463Z,54.30
2022-11-26T20:23:29.669Z,52.10
2022-11-26T20:26:04.217Z,52.60
2022-11-26T20:28:34.243Z,48.60
2022-11-26T20:31:06.269Z,46.50
2022-11-26T20:33:36.626Z,50.10
2022-11-26T20:36:12.875Z,55.20
2022-11-26T20:38:43.074Z,60.50
2022-11-26T20:41:17.192Z,87.50
2022-11-26T20:43:52.474Z,128.40
2022-11-26T20:46:29.100Z,76.00
2022-11-26T20:48:58.990Z,62.60
2022-11-26T20:51:28.282Z,58.50
2022-11-26T20:54:02.370Z,71.20
2022-11-26T20:56:32.008Z,61.00
2022-11-26T20:59:02.203Z,58.10
2022-11-26T21:01:32.951Z,58.40
2022-11-26T21:04:03.198Z,58.90
2022-11-26T21:06:32.240Z,55.00
2022-11-26T21:09:03.781Z,50.80
2022-11-26T21:11:32.848Z,48.70
2022-11-26T21:14:02.175Z,48.90
2022-11-26T21:16:31.370Z,45.70
2022-11-26T21:19:01.547Z,44.80
2022-11-26T21:21:30.952Z,42.10
2022-11-26T21:23:59.482Z,40.40
2022-11-26T21:26:29.089Z,41.00
2022-11-26T21:28:59.407Z,41.50
2022-11-26T21:31:30.099Z,43.90
2022-11-26T21:34:01.060Z,44.40
2022-11-26T21:36:31.304Z,46.30
2022-11-26T21:39:00.980Z,44.70
2022-11-26T21:41:33.922Z,50.70
2022-11-26T21:44:04.375Z,46.20
2022-11-26T21:46:39.079Z,44.50
2022-11-26T21:49:08.839Z,46.50
2022-11-26T21:51:38.175Z,44.30
2022-11-26T21:54:06.779Z,47.30
2022-11-26T21:56:35.386Z,45.40
2022-11-26T21:59:04.092Z,45.00
2022-11-26T22:01:35.539Z,32.10
2022-11-26T22:04:10.135Z,41.60
2022-11-26T22:06:39.018Z,47.40
2022-11-26T22:09:08.430Z,42.90
2022-11-26T22:11:40.133Z,46.50
2022-11-26T22:14:10.872Z,43.30
2022-11-26T22:16:39.377Z,46.40
2022-11-26T22:19:08.646Z,42.90
2022-11-26T22:21:40.224Z,39.60
2022-11-26T22:24:15.975Z,41.40
2022-11-26T22:26:45.046Z,41.40
2022-11-26T22:29:17.682Z,40.80
2022-11-26T22:31:48.531Z,41.40
2022-11-26T22:34:19.055Z,44.20
2022-11-26T22:36:48.129Z,39.30
2022-11-26T22:39:18.136Z,40.30
2022-11-26T22:41:48.174Z,40.10
2022-11-26T22:44:17.789Z,39.60
2022-11-26T22:46:46.437Z,36.80
2022-11-26T22:49:16.707Z,38.50
2022-11-26T22:51:45.507Z,37.70
2022-11-26T22:54:15.894Z,38.40
2022-11-26T22:56:44.314Z,40.60
2022-11-26T22:59:14.713Z,42.90
2022-11-26T23:01:43.338Z,43.50
2022-11-26T23:04:12.651Z,37.40
2022-11-26T23:06:41.015Z,34.70
2022-11-26T23:09:10.336Z,40.00
2022-11-26T23:11:41.395Z,39.80
2022-11-26T23:14:12.347Z,35.90
2022-11-26T23:16:42.677Z,33.60
2022-11-26T23:19:14.657Z,32.80
2022-11-26T23:21:45.101Z,32.90
2022-11-26T23:24:15.802Z,32.20
2022-11-26T23:26:44.278Z,32.00
2022-11-26T23:29:13.423Z,33.50
2022-11-26T23:31:44.050Z,34.10
2022-11-26T23:34:13.293Z,29.40
2022-11-26T23:36:41.729Z,30.50
2022-11-26T23:39:12.503Z,32.10
2022-11-26T23:41:41.139Z,30.90
2022-11-26T23:44:09.587Z,30.20
2022-11-26T23:47:16.816Z,29.50
2022-11-26T23:49:45.226Z,30.90
2022-11-26T23:52:13.599Z,30.60
2022-11-26T23:54:41.892Z,28.60
2022-11-26T23:57:14.850Z,27.00
2022-11-26T23:59:43.575Z,21.40
